createdAt,value
2022-10-30T07:19:29.609Z,71.45
2022-10-30T07:20:33.071Z,69.69
2022-10-30T07:21:34.540Z,69.03
2022-10-30T07:22:38.908Z,68.80
2022-10-30T07:23:40.319Z,68.32
2022-10-30T07:24:44.841Z,67.76
2022-10-30T07:25:46.168Z,65.81
2022-10-30T07:26:47.555Z,63.07
2022-10-30T07:27:53.070Z,61.82
2022-10-30T07:28:54.399Z,62.46
2022-10-30T07:29:55.734Z,65.18
2022-10-30T07:30:58.574Z,64.92
2022-10-30T07:32:03.109Z,65.65
2022-10-30T07:33:07.564Z,62.83
2022-10-30T07:34:08.964Z,59.67
2022-10-30T07:35:12.615Z,58.06
2022-10-30T07:43:05.053Z,53.22
2022-10-30T07:44:06.432Z,52.74
2022-10-30T07:46:15.199Z,51.25
2022-10-30T07:47:16.614Z,51.49
2022-10-30T07:48:18.178Z,51.16
2022-10-30T07:49:19.508Z,50.55
2022-10-30T07:50:21.246Z,49.70
2022-10-30T07:51:22.661Z,48.97
2022-10-30T07:52:24.018Z,49.22
2022-10-30T07:53:25.363Z,48.33
2022-10-30T07:54:26.697Z,48.71
2022-10-30T07:55:28.204Z,47.65
2022-10-30T07:56:30.360Z,46.95
2022-10-30T07:57:39.714Z,48.80
2022-10-30T07:58:45.259Z,50.33
2022-10-30T08:00:57.336Z,50.65
2022-10-30T08:02:00.786Z,50.54
2022-10-30T08:03:03.129Z,47.46
2022-10-30T08:04:05.032Z,47.20
2022-10-30T08:05:06.813Z,49.17
2022-10-30T08:07:14.429Z,50.10
2022-10-30T08:08:15.789Z,48.29
2022-10-30T08:09:17.655Z,50.39
2022-10-30T08:10:19.045Z,51.88
2022-10-30T08:11:20.556Z,51.35
2022-10-30T08:12:21.970Z,48.59
2022-10-30T08:13:23.490Z,47.60
2022-10-30T08:14:24.955Z,48.01
2022-10-30T08:15:26.546Z,48.48
2022-10-30T08:16:28.508Z,47.99
2022-10-30T08:17:29.919Z,48.94
2022-10-30T08:18:31.287Z,50.21
2022-10-30T08:19:32.595Z,49.30
2022-10-30T08:20:33.968Z,48.74
2022-10-30T08:21:35.417Z,46.52
2022-10-30T08:22:47.531Z,45.50
2022-10-30T08:23:49.038Z,44.01
2022-10-30T08:24:50.464Z,44.68
2022-10-30T08:25:56.368Z,46.25
2022-10-30T08:26:57.883Z,45.27
2022-10-30T08:28:00.395Z,43.31
2022-10-30T08:29:01.853Z,44.25
2022-10-30T08:30:03.600Z,44.03
2022-10-30T08:31:09.104Z,42.87
2022-10-30T08:32:10.483Z,40.91
2022-10-30T08:33:15.727Z,40.38
2022-10-30T08:34:17.236Z,40.39
2022-10-30T08:35:19.997Z,42.25
2022-10-30T08:36:21.983Z,43.10
2022-10-30T08:37:23.372Z,44.66
2022-10-30T08:38:25.796Z,41.09
2022-10-30T08:39:27.229Z,40.71
2022-10-30T08:40:29.000Z,40.37
2022-10-30T08:41:30.391Z,43.52
2022-10-30T08:42:31.806Z,41.69
2022-10-30T08:43:33.136Z,39.72
2022-10-30T08:44:34.456Z,39.58
2022-10-30T08:45:36.093Z,40.30
2022-10-30T08:46:37.761Z,41.71
2022-10-30T08:47:39.172Z,42.49
2022-10-30T08:48:40.539Z,41.55
2022-10-30T08:49:42.011Z,40.04
2022-10-30T08:50:44.365Z,40.18
2022-10-30T08:51:46.019Z,38.28
2022-10-30T08:52:49.569Z,37.71
2022-10-30T08:53:53.704Z,37.82
2022-10-30T08:54:55.031Z,36.79
2022-10-30T08:55:56.447Z,37.03
2022-10-30T08:56:57.887Z,37.25
2022-10-30T08:57:59.929Z,39.16
2022-10-30T08:59:01.304Z,39.36
2022-10-30T09:05:02.056Z,35.39
2022-10-30T09:06:03.542Z,34.96
2022-10-30T09:07:07.545Z,35.37
2022-10-30T09:08:11.719Z,35.06
2022-10-30T09:09:14.491Z,34.62
2022-10-30T09:10:15.887Z,34.63
2022-10-30T09:11:17.487Z,35.21
2022-10-30T09:12:18.867Z,35.26
2022-10-30T09:13:20.213Z,34.60
2022-10-30T09:14:25.765Z,34.84
2022-10-30T09:15:27.579Z,37.49
2022-10-30T09:16:28.929Z,39.38
2022-10-30T09:17:30.498Z,37.48
2022-10-30T09:18:31.977Z,35.88
2022-10-30T09:19:33.331Z,39.58
2022-10-30T09:20:34.687Z,39.80
2022-10-30T09:21:39.868Z,37.49
2022-10-30T09:22:42.026Z,36.39
2022-10-30T09:23:44.028Z,38.43
2022-10-30T09:24:45.384Z,36.16
2022-10-30T09:25:46.753Z,34.94
2022-10-30T09:26:51.685Z,34.40
2022-10-30T09:27:53.023Z,36.56
2022-10-30T09:28:54.397Z,36.66
2022-10-30T09:29:55.781Z,36.67
2022-10-30T09:30:57.362Z,37.58
2022-10-30T09:32:00.151Z,37.82
2022-10-30T09:33:06.111Z,35.76
2022-10-30T09:34:07.501Z,36.42
2022-10-30T09:35:09.134Z,38.09
2022-10-30T09:36:10.570Z,38.70
2022-10-30T09:37:11.886Z,36.10
2022-10-30T09:38:13.305Z,37.80
2022-10-30T09:39:14.784Z,37.94
2022-10-30T09:40:47.307Z,38.19
2022-10-30T09:42:03.493Z,38.30
2022-10-30T09:43:49.149Z,39.49
2022-10-30T09:45:27.788Z,37.10
2022-10-30T09:46:45.610Z,36.93
2022-10-30T09:48:04.915Z,36.75
2022-10-30T09:49:12.003Z,37.66
2022-10-30T09:50:29.387Z,35.50
2022-10-30T09:58:45.061Z,32.85
2022-10-30T10:00:00.767Z,33.06
2022-10-30T10:01:14.793Z,30.89
2022-10-30T10:02:20.746Z,31.36
2022-10-30T10:05:02.881Z,32.85
2022-10-30T10:06:11.597Z,31.73
2022-10-30T10:07:37.676Z,31.24
2022-10-30T10:08:41.852Z,30.37
2022-10-30T10:09:44.228Z,32.63
2022-10-30T10:11:00.255Z,30.96
2022-10-30T10:12:38.319Z,32.69
2022-10-30T10:13:47.936Z,34.46
2022-10-30T10:14:49.512Z,34.02
2022-10-30T10:15:55.990Z,32.39
2022-10-30T10:17:00.938Z,31.83
2022-10-30T10:18:06.848Z,30.01
2022-10-30T10:19:20.175Z,29.21
2022-10-30T10:20:32.565Z,30.22
2022-10-30T10:21:44.798Z,30.45
2022-10-30T10:22:50.426Z,30.33
2022-10-30T10:24:04.281Z,30.45
2022-10-30T10:25:12.480Z,32.11
2022-10-30T10:26:43.801Z,30.37
2022-10-30T10:27:59.949Z,29.94
2022-10-30T10:29:15.356Z,30.89
2022-10-30T10:30:20.211Z,30.19
2022-10-30T10:31:38.943Z,30.08
2022-10-30T10:33:25.896Z,30.44
2022-10-30T10:35:06.837Z,30.70
2022-10-30T10:36:12.999Z,28.68
2022-10-30T10:37:31.715Z,28.20
2022-10-30T10:39:07.411Z,29.79
2022-10-30T10:40:44.286Z,31.60
2022-10-30T10:42:00.986Z,34.76
2022-10-30T10:43:25.195Z,33.92
2022-10-30T10:44:35.716Z,33.55
2022-10-30T10:45:55.858Z,32.80
2022-10-30T10:47:55.086Z,33.34
2022-10-30T10:49:17.647Z,34.47
2022-10-30T10:50:30.967Z,34.87
2022-10-30T10:51:44.011Z,34.88
2022-10-30T10:52:59.131Z,35.54
2022-10-30T10:54:06.701Z,35.55
2022-10-30T10:55:17.599Z,32.51
2022-10-30T10:56:26.065Z,31.91
2022-10-30T11:03:02.436Z,32.03
2022-10-30T11:04:12.717Z,34.23
2022-10-30T11:05:17.207Z,35.31
2022-10-30T11:06:22.488Z,33.58
2022-10-30T11:07:30.323Z,32.56
2022-10-30T11:08:35.326Z,33.81
2022-10-30T11:09:36.749Z,34.60
2022-10-30T11:10:38.340Z,34.00
2022-10-30T11:11:39.745Z,33.73
2022-10-30T11:12:41.804Z,33.33
2022-10-30T11:13:45.280Z,33.30
2022-10-30T11:20:04.643Z,30.84
2022-10-30T11:21:43.122Z,29.25
2022-10-30T11:22:49.818Z,29.33
2022-10-30T11:23:51.675Z,29.95
2022-10-30T11:24:53.003Z,29.14
2022-10-30T11:25:54.382Z,31.32
2022-10-30T11:26:58.285Z,32.30
2022-10-30T11:28:03.470Z,33.53
2022-10-30T11:29:12.636Z,33.65
2022-10-30T11:30:20.071Z,33.34
2022-10-30T11:31:23.142Z,32.29
2022-10-30T11:38:04.872Z,35.93
2022-10-30T11:39:11.198Z,38.46
2022-10-30T11:40:12.663Z,38.74
2022-10-30T11:41:18.246Z,37.45
2022-10-30T11:42:19.599Z,37.11
2022-10-30T11:43:24.091Z,37.69
2022-10-30T11:44:30.828Z,38.11
2022-10-30T11:45:36.372Z,38.74
2022-10-30T11:46:42.569Z,38.97
2022-10-30T11:47:44.756Z,39.59
2022-10-30T11:48:46.925Z,39.48
2022-10-30T11:49:53.914Z,40.18
2022-10-30T11:51:03.376Z,40.05
2022-10-30T11:52:06.632Z,39.15
2022-10-30T11:53:17.324Z,39.89
2022-10-30T11:54:21.508Z,39.24
2022-10-30T11:55:39.164Z,39.60
2022-10-30T12:02:04.927Z,37.74
2022-10-30T12:03:28.036Z,40.28
2022-10-30T12:04:32.833Z,36.97
2022-10-30T12:05:38.629Z,39.29
2022-10-30T12:06:40.055Z,40.07
2022-10-30T12:07:41.447Z,38.61
2022-10-30T12:09:02.068Z,38.18
2022-10-30T12:10:04.465Z,37.56
2022-10-30T12:11:06.709Z,37.01
2022-10-30T12:12:28.999Z,35.14
2022-10-30T12:13:39.604Z,35.08
2022-10-30T12:14:41.060Z,34.45
2022-10-30T12:15:43.500Z,33.65
2022-10-30T12:16:47.290Z,35.35
2022-10-30T12:17:53.788Z,35.54
2022-10-30T12:19:09.296Z,35.04
2022-10-30T12:20:15.025Z,35.66
2022-10-30T12:21:19.817Z,33.10
2022-10-30T12:22:27.191Z,33.85
2022-10-30T12:23:29.067Z,34.96
2022-10-30T12:24:33.644Z,33.86
2022-10-30T12:25:36.770Z,33.53
2022-10-30T12:26:39.734Z,33.02
2022-10-30T12:27:41.280Z,33.26
2022-10-30T12:28:58.471Z,33.64
2022-10-30T12:30:08.312Z,33.86
2022-10-30T12:31:17.655Z,33.41
2022-10-30T12:38:04.887Z,33.20
2022-10-30T12:39:26.161Z,35.06
2022-10-30T12:40:31.458Z,32.55
2022-10-30T12:41:47.711Z,32.21
2022-10-30T12:42:58.851Z,32.96
2022-10-30T12:44:23.216Z,32.65
2022-10-30T12:45:31.380Z,33.32
2022-10-30T12:47:05.550Z,34.20
2022-10-30T12:48:23.012Z,32.77
2022-10-30T12:49:39.746Z,32.41
2022-10-30T12:51:03.520Z,32.32
2022-10-30T12:52:26.271Z,32.60
2022-10-30T12:53:36.574Z,33.01
2022-10-30T12:55:08.087Z,34.73
2022-10-30T12:56:17.211Z,35.71
2022-10-30T12:57:23.183Z,36.19
2022-10-30T12:58:46.821Z,38.39
2022-10-30T12:59:57.236Z,39.44
2022-10-30T13:01:13.832Z,40.79
2022-10-30T13:02:36.797Z,40.19
2022-10-30T13:04:02.941Z,38.33
2022-10-30T13:05:17.947Z,40.08
2022-10-30T13:06:25.918Z,39.92
2022-10-30T13:07:47.375Z,36.57
2022-10-30T13:08:54.406Z,36.42
2022-10-30T13:09:58.803Z,36.90
2022-10-30T13:11:09.563Z,37.18
2022-10-30T13:12:17.988Z,39.27
2022-10-30T13:13:25.922Z,39.61
2022-10-30T13:14:44.413Z,40.12
2022-10-30T13:15:53.345Z,38.88
2022-10-30T13:16:54.676Z,37.57
2022-10-30T13:17:59.208Z,39.33
2022-10-30T13:19:02.368Z,40.63
2022-10-30T13:20:12.430Z,41.94
2022-10-30T13:21:24.250Z,41.86
2022-10-30T13:22:52.220Z,40.28
2022-10-30T13:30:23.073Z,37.85
2022-10-30T13:32:00.444Z,36.50
2022-10-30T13:33:34.203Z,37.73
2022-10-30T13:34:44.708Z,38.07
2022-10-30T13:35:56.480Z,37.57
2022-10-30T13:37:10.919Z,37.85
2022-10-30T13:38:18.242Z,38.33
2022-10-30T13:39:24.343Z,38.25
2022-10-30T13:40:42.092Z,37.99
2022-10-30T13:42:12.371Z,37.74
2022-10-30T13:43:31.473Z,38.15
2022-10-30T13:44:48.072Z,38.53
2022-10-30T13:46:04.952Z,37.46
2022-10-30T13:47:34.165Z,38.28
2022-10-30T13:54:06.583Z,40.01
2022-10-30T13:55:17.534Z,40.20
2022-10-30T13:56:21.899Z,38.85
2022-10-30T13:57:41.476Z,39.07
2022-10-30T13:59:00.058Z,37.87
2022-10-30T14:00:22.732Z,38.18
2022-10-30T14:01:37.374Z,36.86
2022-10-30T14:02:41.832Z,37.71
2022-10-30T14:04:02.186Z,37.61
2022-10-30T14:11:54.351Z,42.39
2022-10-30T14:12:55.833Z,43.19
2022-10-30T14:14:04.359Z,41.07
2022-10-30T14:15:06.199Z,43.45
2022-10-30T14:16:27.836Z,41.05
2022-10-30T14:17:31.409Z,41.48
2022-10-30T14:18:45.716Z,42.62
2022-10-30T14:20:10.570Z,41.87
2022-10-30T14:21:40.915Z,43.39
2022-10-30T14:22:42.373Z,43.97
2022-10-30T14:23:43.816Z,46.80
2022-10-30T14:24:45.550Z,47.69
2022-10-30T14:26:02.396Z,49.14
2022-10-30T14:27:03.699Z,49.69
2022-10-30T14:28:06.061Z,49.23
2022-10-30T14:29:31.790Z,49.53
2022-10-30T14:30:34.296Z,48.89
2022-10-30T14:31:36.700Z,49.69
2022-10-30T14:32:40.285Z,49.14
2022-10-30T14:33:56.943Z,49.47
2022-10-30T14:34:58.713Z,50.02
2022-10-30T14:36:38.851Z,50.23
2022-10-30T14:37:40.118Z,51.15
2022-10-30T14:38:45.677Z,51.28
2022-10-30T14:39:48.424Z,52.18
2022-10-30T14:41:11.246Z,50.93
2022-10-30T14:42:23.942Z,49.51
2022-10-30T14:43:48.303Z,50.94
2022-10-30T14:44:58.359Z,51.06
2022-10-30T14:46:04.832Z,50.48
2022-10-30T14:59:04.374Z,54.11
2022-10-30T15:00:24.070Z,53.66
2022-10-30T15:01:35.216Z,53.04
2022-10-30T15:03:10.697Z,52.41
2022-10-30T15:04:22.187Z,51.68
2022-10-30T15:05:58.699Z,50.85
2022-10-30T15:07:18.166Z,49.55
2022-10-30T15:08:52.909Z,49.55
2022-10-30T15:10:05.666Z,48.70
2022-10-30T15:18:01.256Z,44.14
2022-10-30T15:19:08.708Z,45.41
2022-10-30T15:20:19.090Z,45.87
2022-10-30T15:21:27.929Z,44.81
2022-10-30T15:22:30.744Z,45.18
2022-10-30T15:23:37.186Z,41.96
2022-10-30T15:24:40.226Z,43.94
2022-10-30T15:25:49.178Z,43.58
2022-10-30T15:26:53.235Z,44.13
2022-10-30T15:27:59.615Z,42.91
2022-10-30T15:47:20.438Z,49.98
2022-10-30T15:48:28.691Z,51.04
2022-10-30T15:49:35.402Z,53.38
2022-10-30T15:50:52.296Z,52.25
2022-10-30T15:51:53.770Z,52.13
2022-10-30T15:52:55.956Z,52.44
2022-10-30T15:59:06.607Z,53.09
2022-10-30T16:00:30.203Z,52.35
2022-10-30T16:01:37.203Z,49.27
2022-10-30T16:02:38.824Z,48.77
2022-10-30T16:03:42.205Z,50.18
2022-10-30T16:04:48.194Z,49.68
2022-10-30T16:17:10.848Z,54.26
2022-10-30T16:18:25.256Z,53.58
2022-10-30T16:19:30.494Z,52.67
2022-10-30T16:20:32.708Z,51.96
2022-10-30T16:21:35.106Z,52.06
2022-10-30T16:22:39.384Z,52.86
2022-10-30T16:23:46.228Z,52.68
2022-10-30T16:24:51.751Z,52.29
2022-10-30T16:25:55.877Z,50.98
2022-10-30T16:27:04.596Z,49.51
2022-10-30T16:28:06.604Z,49.32
2022-10-30T16:41:06.391Z,54.75
2022-10-30T16:42:20.275Z,57.05
2022-10-30T16:43:24.373Z,57.52
2022-10-30T16:44:33.656Z,58.09
2022-10-30T16:45:34.940Z,61.88
2022-10-30T16:46:41.087Z,64.27
2022-10-30T16:47:46.530Z,65.56
2022-10-30T16:48:58.420Z,65.96
2022-10-30T16:49:59.747Z,66.41
2022-10-30T16:51:03.379Z,65.75
2022-10-30T16:52:07.171Z,65.45
2022-10-30T16:53:20.603Z,65.86
2022-10-30T16:54:27.489Z,65.84
2022-10-30T16:55:29.710Z,65.72
2022-10-30T16:56:32.459Z,65.70
2022-10-30T16:57:37.986Z,66.53
2022-10-30T16:58:39.638Z,66.76
2022-10-30T16:59:52.086Z,66.37
2022-10-30T17:01:06.903Z,68.06
2022-10-30T17:02:21.433Z,68.48
2022-10-30T17:03:26.460Z,69.05
2022-10-30T17:04:29.492Z,69.03
2022-10-30T17:11:04.560Z,68.77
2022-10-30T17:12:20.238Z,69.58
2022-10-30T17:14:02.160Z,69.45
2022-10-30T17:15:06.265Z,69.72
2022-10-30T17:16:28.715Z,70.30
2022-10-30T17:17:36.249Z,70.63
2022-10-30T17:18:37.815Z,70.81
2022-10-30T17:19:46.390Z,70.69
2022-10-30T17:21:21.986Z,70.76
2022-10-30T17:22:24.720Z,72.30
2022-10-30T17:29:02.279Z,72.32
2022-10-30T17:30:24.454Z,72.96
2022-10-30T17:31:40.926Z,72.98
2022-10-30T17:32:44.932Z,72.86
2022-10-30T17:33:47.795Z,72.67
2022-10-30T17:35:09.618Z,73.33
2022-10-30T17:36:10.990Z,73.58
2022-10-30T17:37:12.593Z,73.17
2022-10-30T17:38:13.961Z,72.90
2022-10-30T17:39:15.628Z,72.88
2022-10-30T17:40:18.121Z,72.70
2022-10-30T17:41:19.556Z,72.88
2022-10-30T17:42:20.997Z,73.01
2022-10-30T17:43:27.855Z,73.04
2022-10-30T17:44:35.270Z,73.07
2022-10-30T17:45:36.646Z,72.76
2022-10-30T17:46:38.011Z,72.41
2022-10-30T17:47:39.436Z,72.11
2022-10-30T17:48:41.505Z,72.34
2022-10-30T17:49:43.485Z,72.60
2022-10-30T17:50:45.198Z,72.80
2022-10-30T17:57:04.806Z,73.39
2022-10-30T17:58:06.170Z,73.03
2022-10-30T17:59:07.729Z,72.73
2022-10-30T18:00:09.668Z,73.04
2022-10-30T18:01:17.236Z,72.54
2022-10-30T18:02:22.272Z,72.90
2022-10-30T18:03:23.761Z,73.14
2022-10-30T18:04:25.468Z,72.43
2022-10-30T18:05:29.473Z,72.22
2022-10-30T18:06:31.060Z,72.58
2022-10-30T18:07:32.643Z,73.25
2022-10-30T18:08:34.020Z,73.23
2022-10-30T18:21:04.313Z,73.76
2022-10-30T18:22:05.700Z,73.78
2022-10-30T18:23:50.467Z,74.10
2022-10-30T18:24:40.096Z,74.56
2022-10-30T18:25:41.671Z,74.83
2022-10-30T18:26:43.022Z,74.88
2022-10-30T18:27:47.285Z,75.51
2022-10-30T18:28:51.938Z,75.29
2022-10-30T18:29:53.312Z,75.94
2022-10-30T18:30:57.156Z,75.92
2022-10-30T18:31:58.516Z,76.14
2022-10-30T18:33:00.073Z,76.18
2022-10-30T18:34:01.694Z,76.24
2022-10-30T18:35:12.550Z,76.39
2022-10-30T18:36:16.472Z,76.52
2022-10-30T18:37:17.807Z,77.08
2022-10-30T18:38:19.237Z,77.47
2022-10-30T18:39:20.664Z,77.83
2022-10-30T18:40:22.756Z,77.41
2022-10-30T18:41:36.580Z,77.46
2022-10-30T18:42:38.132Z,76.83
2022-10-30T18:43:43.689Z,77.03
2022-10-30T18:44:50.822Z,77.43
2022-10-30T18:45:52.172Z,77.67
2022-10-30T18:46:54.868Z,77.53
2022-10-30T18:48:00.859Z,77.60
2022-10-30T18:49:02.472Z,77.96
2022-10-30T18:50:07.146Z,78.08
2022-10-30T18:51:17.828Z,77.77
2022-10-30T18:52:19.176Z,77.86
2022-10-30T18:53:21.000Z,77.47
2022-10-30T18:54:22.340Z,77.96
2022-10-30T18:55:37.128Z,78.02
2022-10-30T18:56:38.882Z,78.66
2022-10-30T18:57:40.248Z,78.57
2022-10-30T18:58:41.635Z,79.96
2022-10-30T18:59:42.956Z,79.49
2022-10-30T19:02:23.457Z,79.15
2022-10-30T19:21:35.323Z,79.67
2022-10-30T19:22:36.725Z,79.33
2022-10-30T19:23:38.126Z,78.93
2022-10-30T19:24:39.498Z,78.88
2022-10-30T19:25:44.232Z,79.32
2022-10-30T19:26:45.580Z,79.56
2022-10-30T19:27:47.539Z,79.54
2022-10-30T19:28:48.861Z,79.48
2022-10-30T19:29:50.320Z,79.69
2022-10-30T19:30:52.845Z,80.36
2022-10-30T19:31:54.193Z,80.27
2022-10-30T19:32:55.686Z,80.50
2022-10-30T19:33:57.370Z,80.42
2022-10-30T19:34:58.993Z,80.35
2022-10-30T19:36:04.510Z,80.24
2022-10-30T19:37:09.526Z,81.00
2022-10-30T19:38:12.020Z,80.95
2022-10-30T19:46:00.158Z,80.92
2022-10-30T19:47:01.488Z,80.99
2022-10-30T19:48:20.652Z,81.17
2022-10-30T19:49:25.953Z,81.48
2022-10-30T19:50:37.290Z,81.84
2022-10-30T19:51:38.604Z,82.64
2022-10-30T19:52:39.929Z,82.92
2022-10-30T19:53:41.322Z,82.74
2022-10-30T19:54:42.636Z,82.22
2022-10-30T19:55:44.081Z,83.61
2022-10-30T19:56:45.463Z,83.87
2022-10-30T19:57:47.291Z,83.29
2022-10-30T19:58:49.134Z,84.56
2022-10-30T19:59:53.546Z,84.90
2022-10-30T20:00:55.441Z,85.72
2022-10-30T20:01:57.154Z,85.57
2022-10-30T20:02:59.968Z,85.60
